Terminal Aerodrome Forecast
Issued by NWS Amarillo, TX

Home | Current Version | Previous Version | Text Only | Print | Product List | Glossary On
Versions: 1 2 3 4 5 6 7 8 9 10 11 12 13
898
FTUS44 KAMA 011120
TAFGUY
TAF
KGUY 011120Z 0112/0212 20009KT P6SM SCT120
     FM011800 17011KT P6SM BKN100
     FM012300 14008KT P6SM SCT250
     FM020600 17006KT P6SM SKC=

USA.gov is the U.S. government's official web portal to all federal, state and local government web resources and services.